sensor_id;sensor_type;location;lat;lon;timestamp;P1;durP1;ratioP1;P2;durP2;ratioP2
11303;SDS011;5707;49.588;12.148;2022-12-22T00:01:09;14.50;;;12.85;;
11303;SDS011;5707;49.588;12.148;2022-12-22T00:03:55;12.90;;;11.68;;
11303;SDS011;5707;49.588;12.148;2022-12-22T00:06:39;13.00;;;10.23;;
11303;SDS011;5707;49.588;12.148;2022-12-22T00:09:23;13.68;;;12.38;;
11303;SDS011;5707;49.588;12.148;2022-12-22T00:12:08;14.73;;;13.00;;
11303;SDS011;5707;49.588;12.148;2022-12-22T00:14:54;13.50;;;12.10;;
11303;SDS011;5707;49.588;12.148;2022-12-22T00:17:39;13.73;;;11.63;;
11303;SDS011;5707;49.588;12.148;2022-12-22T00:20:23;9.52;;;8.52;;
11303;SDS011;5707;49.588;12.148;2022-12-22T00:23:08;12.82;;;11.50;;
11303;SDS011;5707;49.588;12.148;2022-12-22T00:25:52;13.57;;;12.07;;
11303;SDS011;5707;49.588;12.148;2022-12-22T00:28:36;13.52;;;11.32;;
11303;SDS011;5707;49.588;12.148;2022-12-22T00:31:21;12.15;;;10.95;;
11303;SDS011;5707;49.588;12.148;2022-12-22T00:34:15;9.27;;;8.38;;
11303;SDS011;5707;49.588;12.148;2022-12-22T00:37:02;11.90;;;10.07;;
11303;SDS011;5707;49.588;12.148;2022-12-22T00:39:47;14.70;;;10.02;;
11303;SDS011;5707;49.588;12.148;2022-12-22T00:42:32;13.07;;;11.77;;
11303;SDS011;5707;49.588;12.148;2022-12-22T00:45:18;15.77;;;14.18;;
11303;SDS011;5707;49.588;12.148;2022-12-22T00:48:03;14.73;;;13.13;;
11303;SDS011;5707;49.588;12.148;2022-12-22T00:50:48;12.75;;;11.35;;
11303;SDS011;5707;49.588;12.148;2022-12-22T00:53:32;15.65;;;13.73;;
11303;SDS011;5707;49.588;12.148;2022-12-22T00:56:16;13.68;;;12.25;;
11303;SDS011;5707;49.588;12.148;2022-12-22T00:59:00;13.55;;;11.68;;
11303;SDS011;5707;49.588;12.148;2022-12-22T01:01:44;18.70;;;12.40;;
11303;SDS011;5707;49.588;12.148;2022-12-22T01:04:28;13.82;;;11.63;;
11303;SDS011;5707;49.588;12.148;2022-12-22T01:07:14;11.75;;;10.57;;
11303;SDS011;5707;49.588;12.148;2022-12-22T01:10:01;19.42;;;11.52;;
11303;SDS011;5707;49.588;12.148;2022-12-22T01:12:46;13.18;;;11.40;;
11303;SDS011;5707;49.588;12.148;2022-12-22T01:15:30;12.20;;;10.85;;
11303;SDS011;5707;49.588;12.148;2022-12-22T01:18:14;16.00;;;11.95;;
11303;SDS011;5707;49.588;12.148;2022-12-22T01:20:58;12.88;;;11.05;;
11303;SDS011;5707;49.588;12.148;2022-12-22T01:23:43;14.00;;;10.38;;
11303;SDS011;5707;49.588;12.148;2022-12-22T01:26:28;14.23;;;11.45;;
11303;SDS011;5707;49.588;12.148;2022-12-22T01:29:12;13.23;;;11.95;;
11303;SDS011;5707;49.588;12.148;2022-12-22T01:31:56;14.98;;;10.25;;
11303;SDS011;5707;49.588;12.148;2022-12-22T01:34:41;18.70;;;12.07;;
11303;SDS011;5707;49.588;12.148;2022-12-22T01:37:25;12.93;;;11.57;;
11303;SDS011;5707;49.588;12.148;2022-12-22T01:40:14;15.95;;;11.77;;
11303;SDS011;5707;49.588;12.148;2022-12-22T01:43:00;17.17;;;11.75;;
11303;SDS011;5707;49.588;12.148;2022-12-22T01:45:44;13.50;;;12.10;;
11303;SDS011;5707;49.588;12.148;2022-12-22T01:48:29;15.15;;;11.90;;
11303;SDS011;5707;49.588;12.148;2022-12-22T01:51:35;13.07;;;11.57;;
11303;SDS011;5707;49.588;12.148;2022-12-22T01:54:19;10.95;;;7.85;;
11303;SDS011;5707;49.588;12.148;2022-12-22T01:57:03;11.80;;;10.57;;
11303;SDS011;5707;49.588;12.148;2022-12-22T01:59:47;12.57;;;11.38;;
11303;SDS011;5707;49.588;12.148;2022-12-22T02:02:31;10.50;;;9.50;;
11303;SDS011;5707;49.588;12.148;2022-12-22T02:05:15;10.52;;;9.63;;
11303;SDS011;5707;49.588;12.148;2022-12-22T02:08:22;10.85;;;9.85;;
11303;SDS011;5707;49.588;12.148;2022-12-22T02:14:20;11.07;;;9.95;;
11303;SDS011;5707;49.588;12.148;2022-12-22T02:17:42;10.20;;;9.30;;
11303;SDS011;5707;49.588;12.148;2022-12-22T02:20:47;11.50;;;10.40;;
11303;SDS011;5707;49.588;12.148;2022-12-22T02:23:54;12.13;;;10.85;;
11303;SDS011;5707;49.588;12.148;2022-12-22T02:26:49;10.05;;;9.15;;
11303;SDS011;5707;49.588;12.148;2022-12-22T02:29:56;10.40;;;9.30;;
11303;SDS011;5707;49.588;12.148;2022-12-22T02:32:44;13.85;;;11.80;;
11303;SDS011;5707;49.588;12.148;2022-12-22T02:35:34;9.63;;;8.63;;
11303;SDS011;5707;49.588;12.148;2022-12-22T02:44:48;13.68;;;10.88;;
11303;SDS011;5707;49.588;12.148;2022-12-22T02:51:05;13.20;;;11.60;;
11303;SDS011;5707;49.588;12.148;2022-12-22T02:53:54;12.38;;;11.15;;
11303;SDS011;5707;49.588;12.148;2022-12-22T02:56:40;12.60;;;10.43;;
11303;SDS011;5707;49.588;12.148;2022-12-22T02:59:25;10.13;;;9.15;;
11303;SDS011;5707;49.588;12.148;2022-12-22T03:02:09;12.98;;;11.77;;
11303;SDS011;5707;49.588;12.148;2022-12-22T03:04:54;10.30;;;8.70;;
11303;SDS011;5707;49.588;12.148;2022-12-22T03:07:38;12.13;;;10.95;;
11303;SDS011;5707;49.588;12.148;2022-12-22T03:10:22;7.30;;;6.68;;
11303;SDS011;5707;49.588;12.148;2022-12-22T03:13:07;11.00;;;10.00;;
11303;SDS011;5707;49.588;12.148;2022-12-22T03:15:51;10.45;;;9.52;;
11303;SDS011;5707;49.588;12.148;2022-12-22T03:18:35;11.85;;;10.70;;
11303;SDS011;5707;49.588;12.148;2022-12-22T03:21:19;9.52;;;8.68;;
11303;SDS011;5707;49.588;12.148;2022-12-22T03:24:03;10.75;;;9.80;;
11303;SDS011;5707;49.588;12.148;2022-12-22T03:26:47;6.20;;;4.85;;
11303;SDS011;5707;49.588;12.148;2022-12-22T03:29:13;7.55;;;6.93;;
11303;SDS011;5707;49.588;12.148;2022-12-22T03:31:38;6.13;;;5.60;;
11303;SDS011;5707;49.588;12.148;2022-12-22T03:34:04;7.88;;;7.28;;
11303;SDS011;5707;49.588;12.148;2022-12-22T03:36:30;9.63;;;8.80;;
11303;SDS011;5707;49.588;12.148;2022-12-22T03:38:55;8.45;;;7.75;;
11303;SDS011;5707;49.588;12.148;2022-12-22T03:41:21;8.13;;;7.32;;
11303;SDS011;5707;49.588;12.148;2022-12-22T03:44:05;5.72;;;5.18;;
11303;SDS011;5707;49.588;12.148;2022-12-22T03:46:49;8.68;;;7.85;;
11303;SDS011;5707;49.588;12.148;2022-12-22T03:49:14;6.20;;;5.68;;
11303;SDS011;5707;49.588;12.148;2022-12-22T03:51:41;7.88;;;7.28;;
11303;SDS011;5707;49.588;12.148;2022-12-22T03:54:07;6.15;;;5.65;;
11303;SDS011;5707;49.588;12.148;2022-12-22T03:56:35;9.65;;;8.85;;
11303;SDS011;5707;49.588;12.148;2022-12-22T03:59:01;8.27;;;7.57;;
11303;SDS011;5707;49.588;12.148;2022-12-22T04:01:27;7.53;;;6.82;;
11303;SDS011;5707;49.588;12.148;2022-12-22T04:03:52;7.97;;;7.22;;
11303;SDS011;5707;49.588;12.148;2022-12-22T04:06:18;9.10;;;8.43;;
11303;SDS011;5707;49.588;12.148;2022-12-22T04:08:44;8.75;;;8.10;;
11303;SDS011;5707;49.588;12.148;2022-12-22T04:11:14;9.38;;;8.68;;
11303;SDS011;5707;49.588;12.148;2022-12-22T04:13:59;9.82;;;8.98;;
11303;SDS011;5707;49.588;12.148;2022-12-22T04:16:26;9.48;;;8.77;;
11303;SDS011;5707;49.588;12.148;2022-12-22T04:18:51;9.73;;;8.93;;
11303;SDS011;5707;49.588;12.148;2022-12-22T04:21:17;9.77;;;8.88;;
11303;SDS011;5707;49.588;12.148;2022-12-22T04:23:42;9.80;;;9.00;;
11303;SDS011;5707;49.588;12.148;2022-12-22T04:26:08;7.55;;;6.22;;
11303;SDS011;5707;49.588;12.148;2022-12-22T04:28:34;8.85;;;8.15;;
11303;SDS011;5707;49.588;12.148;2022-12-22T04:30:59;7.50;;;6.78;;
11303;SDS011;5707;49.588;12.148;2022-12-22T04:33:25;5.30;;;4.88;;
11303;SDS011;5707;49.588;12.148;2022-12-22T04:35:50;7.40;;;6.90;;
11303;SDS011;5707;49.588;12.148;2022-12-22T04:38:16;7.55;;;7.05;;
11303;SDS011;5707;49.588;12.148;2022-12-22T04:40:41;8.20;;;7.60;;
11303;SDS011;5707;49.588;12.148;2022-12-22T04:43:07;6.40;;;5.90;;
11303;SDS011;5707;49.588;12.148;2022-12-22T04:45:33;5.80;;;5.38;;
11303;SDS011;5707;49.588;12.148;2022-12-22T04:47:58;8.13;;;7.53;;
11303;SDS011;5707;49.588;12.148;2022-12-22T04:50:24;4.97;;;4.57;;
11303;SDS011;5707;49.588;12.148;2022-12-22T04:52:49;7.65;;;7.05;;
11303;SDS011;5707;49.588;12.148;2022-12-22T04:55:15;5.15;;;4.70;;
11303;SDS011;5707;49.588;12.148;2022-12-22T04:57:40;5.60;;;5.10;;
11303;SDS011;5707;49.588;12.148;2022-12-22T05:00:06;5.75;;;5.25;;
11303;SDS011;5707;49.588;12.148;2022-12-22T05:02:32;7.75;;;7.25;;
11303;SDS011;5707;49.588;12.148;2022-12-22T05:04:58;9.07;;;5.88;;
11303;SDS011;5707;49.588;12.148;2022-12-22T05:07:24;4.85;;;4.45;;
11303;SDS011;5707;49.588;12.148;2022-12-22T05:09:49;6.50;;;6.00;;
11303;SDS011;5707;49.588;12.148;2022-12-22T05:12:15;6.35;;;5.88;;
11303;SDS011;5707;49.588;12.148;2022-12-22T05:14:59;3.63;;;3.00;;
11303;SDS011;5707;49.588;12.148;2022-12-22T05:17:24;6.53;;;6.03;;
11303;SDS011;5707;49.588;12.148;2022-12-22T05:19:50;6.05;;;5.55;;
11303;SDS011;5707;49.588;12.148;2022-12-22T05:22:15;5.93;;;5.47;;
11303;SDS011;5707;49.588;12.148;2022-12-22T05:24:41;5.90;;;5.45;;
11303;SDS011;5707;49.588;12.148;2022-12-22T05:27:06;4.57;;;4.18;;
11303;SDS011;5707;49.588;12.148;2022-12-22T05:29:32;6.68;;;6.18;;
11303;SDS011;5707;49.588;12.148;2022-12-22T05:31:58;6.93;;;4.38;;
11303;SDS011;5707;49.588;12.148;2022-12-22T05:34:23;7.30;;;6.57;;
11303;SDS011;5707;49.588;12.148;2022-12-22T05:36:49;6.47;;;5.97;;
11303;SDS011;5707;49.588;12.148;2022-12-22T05:39:14;6.00;;;5.53;;
11303;SDS011;5707;49.588;12.148;2022-12-22T05:41:40;6.32;;;5.82;;
11303;SDS011;5707;49.588;12.148;2022-12-22T05:44:05;5.28;;;4.88;;
11303;SDS011;5707;49.588;12.148;2022-12-22T05:46:31;6.35;;;5.82;;
11303;SDS011;5707;49.588;12.148;2022-12-22T05:48:56;6.20;;;5.80;;
11303;SDS011;5707;49.588;12.148;2022-12-22T05:51:22;5.22;;;4.53;;
11303;SDS011;5707;49.588;12.148;2022-12-22T05:53:48;5.00;;;4.63;;
11303;SDS011;5707;49.588;12.148;2022-12-22T05:56:13;6.32;;;5.93;;
11303;SDS011;5707;49.588;12.148;2022-12-22T05:58:39;6.03;;;5.47;;
11303;SDS011;5707;49.588;12.148;2022-12-22T06:01:05;6.35;;;5.95;;
11303;SDS011;5707;49.588;12.148;2022-12-22T06:03:30;6.30;;;5.80;;
11303;SDS011;5707;49.588;12.148;2022-12-22T06:05:56;5.07;;;4.68;;
11303;SDS011;5707;49.588;12.148;2022-12-22T06:08:22;6.60;;;6.07;;
11303;SDS011;5707;49.588;12.148;2022-12-22T06:10:49;6.80;;;5.28;;
11303;SDS011;5707;49.588;12.148;2022-12-22T06:13:15;7.18;;;6.60;;
11303;SDS011;5707;49.588;12.148;2022-12-22T06:15:40;5.93;;;5.47;;
11303;SDS011;5707;49.588;12.148;2022-12-22T06:18:06;5.85;;;5.05;;
11303;SDS011;5707;49.588;12.148;2022-12-22T06:20:32;6.18;;;5.68;;
11303;SDS011;5707;49.588;12.148;2022-12-22T06:22:57;2.65;;;2.45;;
11303;SDS011;5707;49.588;12.148;2022-12-22T06:25:23;6.32;;;5.82;;
11303;SDS011;5707;49.588;12.148;2022-12-22T06:27:48;6.38;;;5.78;;
11303;SDS011;5707;49.588;12.148;2022-12-22T06:30:14;6.75;;;6.18;;
11303;SDS011;5707;49.588;12.148;2022-12-22T06:32:40;7.47;;;6.78;;
11303;SDS011;5707;49.588;12.148;2022-12-22T06:35:06;6.38;;;5.80;;
11303;SDS011;5707;49.588;12.148;2022-12-22T06:37:33;6.97;;;6.45;;
11303;SDS011;5707;49.588;12.148;2022-12-22T06:39:58;7.18;;;6.68;;
11303;SDS011;5707;49.588;12.148;2022-12-22T06:42:24;9.23;;;8.18;;
11303;SDS011;5707;49.588;12.148;2022-12-22T06:45:08;7.30;;;6.80;;
11303;SDS011;5707;49.588;12.148;2022-12-22T06:47:34;2.97;;;2.67;;
11303;SDS011;5707;49.588;12.148;2022-12-22T06:49:59;6.95;;;6.35;;
11303;SDS011;5707;49.588;12.148;2022-12-22T06:52:25;6.72;;;6.20;;
11303;SDS011;5707;49.588;12.148;2022-12-22T06:54:50;9.27;;;7.63;;
11303;SDS011;5707;49.588;12.148;2022-12-22T06:57:16;6.97;;;6.47;;
11303;SDS011;5707;49.588;12.148;2022-12-22T06:59:41;7.43;;;6.93;;
11303;SDS011;5707;49.588;12.148;2022-12-22T07:02:08;6.18;;;5.75;;
11303;SDS011;5707;49.588;12.148;2022-12-22T07:04:35;6.78;;;6.28;;
11303;SDS011;5707;49.588;12.148;2022-12-22T07:07:00;6.60;;;6.10;;
11303;SDS011;5707;49.588;12.148;2022-12-22T07:09:26;7.10;;;6.60;;
11303;SDS011;5707;49.588;12.148;2022-12-22T07:11:51;6.82;;;6.32;;
11303;SDS011;5707;49.588;12.148;2022-12-22T07:14:17;7.00;;;6.32;;
11303;SDS011;5707;49.588;12.148;2022-12-22T07:16:43;7.68;;;7.07;;
11303;SDS011;5707;49.588;12.148;2022-12-22T07:19:09;7.93;;;6.95;;
11303;SDS011;5707;49.588;12.148;2022-12-22T07:21:35;6.53;;;6.03;;
11303;SDS011;5707;49.588;12.148;2022-12-22T07:24:00;7.07;;;6.53;;
11303;SDS011;5707;49.588;12.148;2022-12-22T07:26:26;6.80;;;6.30;;
11303;SDS011;5707;49.588;12.148;2022-12-22T07:28:51;7.20;;;6.70;;
11303;SDS011;5707;49.588;12.148;2022-12-22T07:31:17;7.28;;;6.68;;
11303;SDS011;5707;49.588;12.148;2022-12-22T07:33:43;6.57;;;5.97;;
11303;SDS011;5707;49.588;12.148;2022-12-22T07:36:12;7.07;;;6.50;;
11303;SDS011;5707;49.588;12.148;2022-12-22T07:38:44;7.47;;;6.97;;
11303;SDS011;5707;49.588;12.148;2022-12-22T07:41:11;6.43;;;5.93;;
11303;SDS011;5707;49.588;12.148;2022-12-22T07:43:57;6.80;;;6.30;;
11303;SDS011;5707;49.588;12.148;2022-12-22T07:46:24;5.20;;;4.90;;
11303;SDS011;5707;49.588;12.148;2022-12-22T07:48:52;5.82;;;5.43;;
11303;SDS011;5707;49.588;12.148;2022-12-22T07:51:37;6.40;;;5.65;;
11303;SDS011;5707;49.588;12.148;2022-12-22T07:54:05;6.05;;;5.60;;
11303;SDS011;5707;49.588;12.148;2022-12-22T07:56:31;6.32;;;5.82;;
11303;SDS011;5707;49.588;12.148;2022-12-22T07:58:57;5.82;;;5.43;;
11303;SDS011;5707;49.588;12.148;2022-12-22T08:01:24;5.40;;;5.00;;
11303;SDS011;5707;49.588;12.148;2022-12-22T08:03:50;6.18;;;5.70;;
11303;SDS011;5707;49.588;12.148;2022-12-22T08:06:16;6.43;;;5.93;;
11303;SDS011;5707;49.588;12.148;2022-12-22T08:08:42;5.70;;;5.30;;
11303;SDS011;5707;49.588;12.148;2022-12-22T08:11:07;4.53;;;4.22;;
11303;SDS011;5707;49.588;12.148;2022-12-22T08:13:33;4.63;;;4.22;;
11303;SDS011;5707;49.588;12.148;2022-12-22T08:16:06;4.60;;;4.28;;
11303;SDS011;5707;49.588;12.148;2022-12-22T08:18:34;5.32;;;4.93;;
11303;SDS011;5707;49.588;12.148;2022-12-22T08:21:00;5.75;;;4.65;;
11303;SDS011;5707;49.588;12.148;2022-12-22T08:23:26;4.65;;;4.25;;
11303;SDS011;5707;49.588;12.148;2022-12-22T08:28:48;5.05;;;4.68;;
11303;SDS011;5707;49.588;12.148;2022-12-22T08:31:18;4.07;;;3.78;;
11303;SDS011;5707;49.588;12.148;2022-12-22T08:33:45;4.50;;;4.13;;
11303;SDS011;5707;49.588;12.148;2022-12-22T08:36:12;4.13;;;3.83;;
11303;SDS011;5707;49.588;12.148;2022-12-22T08:38:38;4.07;;;3.72;;
11303;SDS011;5707;49.588;12.148;2022-12-22T08:41:06;4.85;;;4.45;;
11303;SDS011;5707;49.588;12.148;2022-12-22T08:43:34;6.18;;;5.57;;
11303;SDS011;5707;49.588;12.148;2022-12-22T08:45:59;8.45;;;7.53;;
11303;SDS011;5707;49.588;12.148;2022-12-22T08:48:25;7.65;;;6.90;;
11303;SDS011;5707;49.588;12.148;2022-12-22T08:50:51;3.55;;;3.25;;
11303;SDS011;5707;49.588;12.148;2022-12-22T08:53:16;5.05;;;4.65;;
11303;SDS011;5707;49.588;12.148;2022-12-22T08:55:49;4.75;;;4.45;;
11303;SDS011;5707;49.588;12.148;2022-12-22T08:58:16;4.13;;;3.83;;
11303;SDS011;5707;49.588;12.148;2022-12-22T09:00:41;6.75;;;6.25;;
11303;SDS011;5707;49.588;12.148;2022-12-22T09:03:08;4.45;;;4.10;;
11303;SDS011;5707;49.588;12.148;2022-12-22T09:05:33;4.10;;;3.80;;
11303;SDS011;5707;49.588;12.148;2022-12-22T09:08:02;3.33;;;3.03;;
11303;SDS011;5707;49.588;12.148;2022-12-22T09:10:28;7.40;;;4.50;;
11303;SDS011;5707;49.588;12.148;2022-12-22T09:12:54;4.47;;;4.18;;
11303;SDS011;5707;49.588;12.148;2022-12-22T09:15:20;4.30;;;4.00;;
11303;SDS011;5707;49.588;12.148;2022-12-22T09:17:45;5.75;;;5.35;;
11303;SDS011;5707;49.588;12.148;2022-12-22T09:20:12;4.70;;;4.28;;
11303;SDS011;5707;49.588;12.148;2022-12-22T09:22:38;3.95;;;3.63;;
11303;SDS011;5707;49.588;12.148;2022-12-22T09:25:04;4.05;;;3.75;;
11303;SDS011;5707;49.588;12.148;2022-12-22T09:27:29;4.05;;;3.65;;
11303;SDS011;5707;49.588;12.148;2022-12-22T09:29:55;3.97;;;3.67;;
11303;SDS011;5707;49.588;12.148;2022-12-22T09:32:21;4.55;;;4.00;;
11303;SDS011;5707;49.588;12.148;2022-12-22T09:34:46;4.53;;;3.55;;
11303;SDS011;5707;49.588;12.148;2022-12-22T09:37:15;5.35;;;3.90;;
11303;SDS011;5707;49.588;12.148;2022-12-22T09:39:41;4.00;;;3.70;;
11303;SDS011;5707;49.588;12.148;2022-12-22T09:42:14;3.70;;;3.40;;
11303;SDS011;5707;49.588;12.148;2022-12-22T09:44:43;9.90;;;3.92;;
11303;SDS011;5707;49.588;12.148;2022-12-22T09:47:15;4.38;;;4.07;;
11303;SDS011;5707;49.588;12.148;2022-12-22T09:50:02;4.07;;;3.63;;
11303;SDS011;5707;49.588;12.148;2022-12-22T09:54:57;4.50;;;4.10;;
11303;SDS011;5707;49.588;12.148;2022-12-22T09:57:25;4.97;;;4.57;;
11303;SDS011;5707;49.588;12.148;2022-12-22T09:59:55;5.35;;;4.93;;
11303;SDS011;5707;49.588;12.148;2022-12-22T10:02:39;4.25;;;3.85;;
11303;SDS011;5707;49.588;12.148;2022-12-22T10:08:07;3.55;;;3.30;;
11303;SDS011;5707;49.588;12.148;2022-12-22T10:10:35;4.53;;;3.90;;
11303;SDS011;5707;49.588;12.148;2022-12-22T10:13:02;4.50;;;4.18;;
11303;SDS011;5707;49.588;12.148;2022-12-22T10:15:36;3.95;;;3.65;;
11303;SDS011;5707;49.588;12.148;2022-12-22T10:18:08;4.40;;;4.10;;
11303;SDS011;5707;49.588;12.148;2022-12-22T10:20:36;4.85;;;4.45;;
11303;SDS011;5707;49.588;12.148;2022-12-22T10:23:04;4.50;;;4.10;;
11303;SDS011;5707;49.588;12.148;2022-12-22T10:28:34;4.75;;;4.35;;
11303;SDS011;5707;49.588;12.148;2022-12-22T10:33:37;4.47;;;4.07;;
11303;SDS011;5707;49.588;12.148;2022-12-22T10:36:04;4.68;;;4.28;;
11303;SDS011;5707;49.588;12.148;2022-12-22T10:41:20;4.32;;;4.03;;
11303;SDS011;5707;49.588;12.148;2022-12-22T10:46:37;3.97;;;3.60;;
11303;SDS011;5707;49.588;12.148;2022-12-22T10:49:07;4.38;;;3.97;;
11303;SDS011;5707;49.588;12.148;2022-12-22T10:51:48;3.97;;;2.97;;
11303;SDS011;5707;49.588;12.148;2022-12-22T10:54:28;3.33;;;3.03;;
11303;SDS011;5707;49.588;12.148;2022-12-22T10:57:21;3.60;;;3.03;;
11303;SDS011;5707;49.588;12.148;2022-12-22T10:59:55;4.85;;;3.97;;
11303;SDS011;5707;49.588;12.148;2022-12-22T11:05:07;3.25;;;2.97;;
11303;SDS011;5707;49.588;12.148;2022-12-22T11:07:35;3.80;;;3.50;;
11303;SDS011;5707;49.588;12.148;2022-12-22T11:10:06;4.25;;;3.80;;
11303;SDS011;5707;49.588;12.148;2022-12-22T11:15:33;4.32;;;3.08;;
11303;SDS011;5707;49.588;12.148;2022-12-22T11:33:10;3.53;;;3.22;;
11303;SDS011;5707;49.588;12.148;2022-12-22T11:38:30;3.05;;;2.70;;
11303;SDS011;5707;49.588;12.148;2022-12-22T11:44:23;3.00;;;2.60;;
11303;SDS011;5707;49.588;12.148;2022-12-22T11:55:10;3.25;;;2.25;;
11303;SDS011;5707;49.588;12.148;2022-12-22T11:58:03;3.28;;;3.08;;
11303;SDS011;5707;49.588;12.148;2022-12-22T12:06:49;5.32;;;2.47;;
11303;SDS011;5707;49.588;12.148;2022-12-22T12:09:34;7.85;;;6.55;;
11303;SDS011;5707;49.588;12.148;2022-12-22T12:20:27;4.15;;;1.90;;
11303;SDS011;5707;49.588;12.148;2022-12-22T12:31:09;3.55;;;1.33;;
11303;SDS011;5707;49.588;12.148;2022-12-22T12:33:49;2.42;;;1.10;;
11303;SDS011;5707;49.588;12.148;2022-12-22T12:44:32;2.67;;;0.70;;
11303;SDS011;5707;49.588;12.148;2022-12-22T12:49:50;2.42;;;1.02;;
11303;SDS011;5707;49.588;12.148;2022-12-22T12:55:22;2.00;;;0.93;;
11303;SDS011;5707;49.588;12.148;2022-12-22T12:57:53;3.22;;;1.08;;
11303;SDS011;5707;49.588;12.148;2022-12-22T13:08:25;2.05;;;1.20;;
11303;SDS011;5707;49.588;12.148;2022-12-22T13:15:46;3.47;;;0.90;;
11303;SDS011;5707;49.588;12.148;2022-12-22T13:21:01;3.53;;;0.95;;
11303;SDS011;5707;49.588;12.148;2022-12-22T13:26:21;1.02;;;0.93;;
11303;SDS011;5707;49.588;12.148;2022-12-22T13:28:59;1.65;;;0.60;;
11303;SDS011;5707;49.588;12.148;2022-12-22T13:31:44;2.70;;;0.90;;
11303;SDS011;5707;49.588;12.148;2022-12-22T13:36:56;1.02;;;0.88;;
11303;SDS011;5707;49.588;12.148;2022-12-22T13:39:26;1.58;;;0.80;;
11303;SDS011;5707;49.588;12.148;2022-12-22T13:41:51;1.75;;;0.63;;
11303;SDS011;5707;49.588;12.148;2022-12-22T13:44:19;0.68;;;0.60;;
11303;SDS011;5707;49.588;12.148;2022-12-22T13:47:00;1.20;;;0.98;;
11303;SDS011;5707;49.588;12.148;2022-12-22T13:49:28;2.22;;;0.82;;
11303;SDS011;5707;49.588;12.148;2022-12-22T13:51:56;1.85;;;0.98;;
11303;SDS011;5707;49.588;12.148;2022-12-22T13:54:28;1.23;;;0.70;;
11303;SDS011;5707;49.588;12.148;2022-12-22T13:56:57;0.98;;;0.65;;
11303;SDS011;5707;49.588;12.148;2022-12-22T14:04:37;1.27;;;1.17;;
11303;SDS011;5707;49.588;12.148;2022-12-22T14:07:14;2.03;;;1.40;;
11303;SDS011;5707;49.588;12.148;2022-12-22T14:09:42;0.98;;;0.80;;
11303;SDS011;5707;49.588;12.148;2022-12-22T14:12:13;0.77;;;0.30;;
11303;SDS011;5707;49.588;12.148;2022-12-22T14:14:41;1.80;;;1.20;;
11303;SDS011;5707;49.588;12.148;2022-12-22T14:17:15;1.92;;;1.83;;
11303;SDS011;5707;49.588;12.148;2022-12-22T14:19:51;1.15;;;1.00;;
11303;SDS011;5707;49.588;12.148;2022-12-22T14:22:26;0.73;;;0.60;;
11303;SDS011;5707;49.588;12.148;2022-12-22T14:25:17;1.10;;;0.80;;
11303;SDS011;5707;49.588;12.148;2022-12-22T14:27:49;1.23;;;1.13;;
11303;SDS011;5707;49.588;12.148;2022-12-22T14:30:21;1.13;;;0.98;;
11303;SDS011;5707;49.588;12.148;2022-12-22T14:32:53;1.08;;;0.80;;
11303;SDS011;5707;49.588;12.148;2022-12-22T14:37:49;1.40;;;1.10;;
11303;SDS011;5707;49.588;12.148;2022-12-22T14:42:59;0.50;;;0.50;;
11303;SDS011;5707;49.588;12.148;2022-12-22T14:45:26;0.57;;;0.32;;
11303;SDS011;5707;49.588;12.148;2022-12-22T14:47:52;0.85;;;0.80;;
11303;SDS011;5707;49.588;12.148;2022-12-22T14:50:20;0.82;;;0.77;;
11303;SDS011;5707;49.588;12.148;2022-12-22T14:52:49;2.13;;;1.88;;
11303;SDS011;5707;49.588;12.148;2022-12-22T14:55:28;1.35;;;1.20;;
11303;SDS011;5707;49.588;12.148;2022-12-22T14:58:04;1.50;;;1.38;;
11303;SDS011;5707;49.588;12.148;2022-12-22T15:00:41;0.82;;;0.82;;
11303;SDS011;5707;49.588;12.148;2022-12-22T15:05:55;4.70;;;4.32;;
11303;SDS011;5707;49.588;12.148;2022-12-22T15:08:41;2.70;;;2.50;;
11303;SDS011;5707;49.588;12.148;2022-12-22T15:11:08;2.00;;;1.67;;
11303;SDS011;5707;49.588;12.148;2022-12-22T15:13:36;2.95;;;2.75;;
11303;SDS011;5707;49.588;12.148;2022-12-22T15:16:01;6.03;;;5.55;;
11303;SDS011;5707;49.588;12.148;2022-12-22T15:18:27;2.33;;;2.00;;
11303;SDS011;5707;49.588;12.148;2022-12-22T15:20:53;1.65;;;1.52;;
11303;SDS011;5707;49.588;12.148;2022-12-22T15:23:20;1.95;;;1.80;;
11303;SDS011;5707;49.588;12.148;2022-12-22T15:25:46;1.63;;;1.52;;
11303;SDS011;5707;49.588;12.148;2022-12-22T15:28:12;2.85;;;2.65;;
11303;SDS011;5707;49.588;12.148;2022-12-22T15:30:37;2.15;;;1.95;;
11303;SDS011;5707;49.588;12.148;2022-12-22T15:33:08;2.00;;;1.73;;
11303;SDS011;5707;49.588;12.148;2022-12-22T15:35:39;1.60;;;1.50;;
11303;SDS011;5707;49.588;12.148;2022-12-22T15:38:08;2.30;;;1.33;;
11303;SDS011;5707;49.588;12.148;2022-12-22T15:40:39;1.48;;;1.38;;
11303;SDS011;5707;49.588;12.148;2022-12-22T15:43:05;1.35;;;1.25;;
11303;SDS011;5707;49.588;12.148;2022-12-22T15:45:30;1.95;;;1.60;;
11303;SDS011;5707;49.588;12.148;2022-12-22T15:47:56;2.35;;;1.50;;
11303;SDS011;5707;49.588;12.148;2022-12-22T15:50:24;1.52;;;1.25;;
11303;SDS011;5707;49.588;12.148;2022-12-22T15:52:55;1.38;;;1.27;;
11303;SDS011;5707;49.588;12.148;2022-12-22T15:55:23;1.95;;;1.70;;
11303;SDS011;5707;49.588;12.148;2022-12-22T15:57:50;1.60;;;1.50;;
11303;SDS011;5707;49.588;12.148;2022-12-22T16:00:19;1.80;;;1.70;;
11303;SDS011;5707;49.588;12.148;2022-12-22T16:02:45;1.70;;;1.60;;
11303;SDS011;5707;49.588;12.148;2022-12-22T16:05:11;0.93;;;0.80;;
11303;SDS011;5707;49.588;12.148;2022-12-22T16:07:38;1.83;;;1.73;;
11303;SDS011;5707;49.588;12.148;2022-12-22T16:10:06;1.73;;;1.63;;
11303;SDS011;5707;49.588;12.148;2022-12-22T16:12:42;2.45;;;2.05;;
11303;SDS011;5707;49.588;12.148;2022-12-22T16:15:13;2.80;;;2.35;;
11303;SDS011;5707;49.588;12.148;2022-12-22T16:17:39;2.00;;;1.83;;
11303;SDS011;5707;49.588;12.148;2022-12-22T16:20:05;3.38;;;3.08;;
11303;SDS011;5707;49.588;12.148;2022-12-22T16:22:32;2.65;;;2.28;;
11303;SDS011;5707;49.588;12.148;2022-12-22T16:24:59;1.88;;;1.20;;
11303;SDS011;5707;49.588;12.148;2022-12-22T16:27:27;1.27;;;1.15;;
11303;SDS011;5707;49.588;12.148;2022-12-22T16:29:54;1.38;;;1.30;;
11303;SDS011;5707;49.588;12.148;2022-12-22T16:32:27;1.85;;;1.73;;
11303;SDS011;5707;49.588;12.148;2022-12-22T16:35:12;2.72;;;2.53;;
11303;SDS011;5707;49.588;12.148;2022-12-22T16:37:40;2.03;;;1.92;;
11303;SDS011;5707;49.588;12.148;2022-12-22T16:40:06;4.72;;;3.55;;
11303;SDS011;5707;49.588;12.148;2022-12-22T16:42:32;4.47;;;4.10;;
11303;SDS011;5707;49.588;12.148;2022-12-22T16:44:59;3.80;;;3.50;;
11303;SDS011;5707;49.588;12.148;2022-12-22T16:47:27;5.15;;;3.13;;
11303;SDS011;5707;49.588;12.148;2022-12-22T16:49:57;2.47;;;2.28;;
11303;SDS011;5707;49.588;12.148;2022-12-22T16:52:35;2.40;;;2.20;;
11303;SDS011;5707;49.588;12.148;2022-12-22T16:55:05;3.55;;;3.25;;
11303;SDS011;5707;49.588;12.148;2022-12-22T16:57:44;3.67;;;2.03;;
11303;SDS011;5707;49.588;12.148;2022-12-22T17:00:20;2.42;;;2.30;;
11303;SDS011;5707;49.588;12.148;2022-12-22T17:02:49;3.30;;;3.05;;
11303;SDS011;5707;49.588;12.148;2022-12-22T17:05:24;5.22;;;4.72;;
11303;SDS011;5707;49.588;12.148;2022-12-22T17:07:51;6.05;;;5.55;;
11303;SDS011;5707;49.588;12.148;2022-12-22T17:10:19;5.82;;;5.40;;
11303;SDS011;5707;49.588;12.148;2022-12-22T17:12:46;6.18;;;5.75;;
11303;SDS011;5707;49.588;12.148;2022-12-22T17:15:16;6.95;;;6.38;;
11303;SDS011;5707;49.588;12.148;2022-12-22T17:17:43;5.38;;;4.90;;
11303;SDS011;5707;49.588;12.148;2022-12-22T17:20:16;3.53;;;3.10;;
11303;SDS011;5707;49.588;12.148;2022-12-22T17:22:46;2.67;;;2.47;;
11303;SDS011;5707;49.588;12.148;2022-12-22T17:25:32;2.15;;;1.95;;
11303;SDS011;5707;49.588;12.148;2022-12-22T17:27:59;2.17;;;1.70;;
11303;SDS011;5707;49.588;12.148;2022-12-22T17:30:26;1.70;;;1.60;;
11303;SDS011;5707;49.588;12.148;2022-12-22T17:32:52;1.77;;;1.67;;